• Join FlightAware (Why Join?)
  • Login
  • US Flag 
01:24AM EDT


 

Airport Tracker/Info


-or-


 

Live Flight TrackerFlight Track Log ✈ KAP528 ✈ 29-Jun-2013 ✈ KACK - KEWB

Flight Track Log - Related Links

Times and Time Zones

All times are in EDT time to prevent confusion due to time zone crossing. See the KAP528 flight status page for this flight to view local times or setup timezone preferences in your user account.

Time Position Orientation Groundspeed Altitude Reporting Facility
EDT Latitude Longitude Course Direction KTS MPH feet Rate Location/Type
01:19PM 41.3209 -70.3251 283° West  Level FlightAware Approximate
01:20PM 41.3288 -70.3724 283° West  Level FlightAware Approximate
01:21PM 41.3382 -70.4192 288° West  Level FlightAware Approximate
01:22PM 41.3497 -70.4653 288° West  Level FlightAware Approximate
01:23PM 41.3612 -70.5113 288° West  Level FlightAware Approximate
01:24PM 41.3727 -70.5574 288° West  Level FlightAware Approximate
01:25PM 41.3854 -70.6024 318° Northwest  Level FlightAware Approximate
01:26PM 41.4125 -70.6349 318° Northwest  Level FlightAware Approximate
01:27PM 41.4396 -70.6674 318° Northwest  Level FlightAware Approximate
01:28PM 41.4666 -70.7000 318° Northwest  Level FlightAware Approximate
01:29PM 41.4958 -70.7291 323° Northwest  Level FlightAware Approximate
01:29PM 41.4922 -70.7883 315° West 176 203 2,600  Level Boston Center
01:29PM 41.5217 -70.8153 326° Northwest 176 203 2,300 -360 Descending Boston Center
01:30PM 41.5240 -70.7598 315° West  Level FlightAware Approximate
01:30PM 41.5517 -70.8672 308° West 171 197 2,000  Level Boston Center
01:31PM 41.5498 -70.7942 315° West  Level FlightAware Approximate
01:31PM 41.5836 -70.9108 314° West 163 188 2,000  Level Boston Center
01:32PM 41.5756 -70.8286 315° West  Level FlightAware Approximate
01:32PM 41.6092 -70.9603 305° West 151 174 1,900  Level Boston Center
01:33PM 41.6014 -70.8630 315° West  Level FlightAware Approximate
01:33PM 41.6264 -71.0097 295° West 148 170 2,000  Level Boston Center
01:34PM 41.6272 -70.8974 315° West  Level FlightAware Approximate
01:34PM 41.6417 -71.0622 291° West 146 168 1,900  Level Boston Center
01:35PM 41.6694 -71.1089 309° West 154 177 2,000  Climbing Boston Center
01:36PM 41.6969 -71.1500 312° West 153 176 1,900 -60 Descending Boston Center
01:37PM 41.7267 -71.1939 312° West 154 177 1,900  Level Boston Center
01:39PM 41.7703 -71.1764 17° North 181 208 1,900 -120 Level Boston Center
01:39PM 41.7822 -71.1261 72° East 170 196 1,700 -240 Descending Boston Center